createdAt,value
2023-05-04T00:01:42.272Z,3.05
2023-05-04T00:04:46.647Z,3.38
2023-05-04T00:07:51.046Z,2.17
2023-05-04T00:10:55.276Z,2.00
2023-05-04T00:13:59.523Z,2.22
2023-05-04T00:17:03.821Z,2.55
2023-05-04T00:20:07.953Z,1.83
2023-05-04T00:23:12.246Z,2.85
2023-05-04T00:26:16.629Z,2.85
2023-05-04T00:29:20.764Z,2.15
2023-05-04T00:32:25.462Z,2.38
2023-05-04T00:35:29.908Z,2.47
2023-05-04T00:38:34.260Z,2.25
2023-05-04T00:41:38.626Z,2.50
2023-05-04T00:44:42.683Z,3.78
2023-05-04T00:47:47.238Z,2.25
2023-05-04T00:50:51.662Z,2.47
2023-05-04T00:53:56.309Z,3.70
2023-05-04T00:57:00.472Z,2.67
2023-05-04T01:00:04.924Z,2.47
2023-05-04T01:03:09.708Z,4.30
2023-05-04T01:06:14.310Z,2.42
2023-05-04T01:09:18.508Z,2.80
2023-05-04T01:12:22.778Z,2.58
2023-05-04T01:15:27.079Z,2.95
2023-05-04T01:18:31.314Z,3.17
2023-05-04T01:21:35.820Z,2.92
2023-05-04T01:24:40.076Z,2.60
2023-05-04T01:27:44.236Z,3.35
2023-05-04T01:30:48.579Z,3.03
2023-05-04T01:33:52.961Z,2.72
2023-05-04T01:36:57.765Z,2.50
2023-05-04T01:40:02.621Z,3.67
2023-05-04T01:43:06.970Z,3.88
2023-05-04T01:46:11.167Z,3.28
2023-05-04T01:49:15.583Z,2.60
2023-05-04T01:52:19.766Z,3.03
2023-05-04T01:55:23.898Z,3.67
2023-05-04T01:58:28.269Z,2.65
2023-05-04T02:01:32.641Z,2.90
2023-05-04T02:04:36.971Z,2.83
2023-05-04T02:07:41.437Z,2.85
2023-05-04T02:10:45.923Z,3.55
2023-05-04T02:13:50.262Z,3.40
2023-05-04T02:16:54.758Z,3.13
2023-05-04T02:19:59.026Z,2.75
2023-05-04T02:23:03.508Z,3.10
2023-05-04T02:26:07.921Z,2.97
2023-05-04T02:29:12.057Z,3.08
2023-05-04T02:32:16.551Z,2.50
2023-05-04T02:35:20.818Z,2.42
2023-05-04T02:38:25.146Z,2.58
2023-05-04T02:41:29.430Z,2.10
2023-05-04T02:44:33.508Z,3.30
2023-05-04T02:47:37.948Z,3.00
2023-05-04T02:50:42.451Z,3.17
2023-05-04T02:53:46.645Z,4.47
2023-05-04T02:56:50.900Z,2.97
2023-05-04T02:59:55.201Z,3.80
2023-05-04T03:02:59.672Z,2.97
2023-05-04T03:06:03.947Z,2.50
2023-05-04T03:09:08.478Z,3.35
2023-05-04T03:12:12.752Z,3.80
2023-05-04T03:15:17.090Z,2.70
2023-05-04T03:18:21.364Z,3.10
2023-05-04T03:21:25.703Z,3.65
2023-05-04T03:24:29.910Z,3.78
2023-05-04T03:27:34.446Z,3.08
2023-05-04T03:30:38.775Z,2.40
2023-05-04T03:33:43.214Z,4.28
2023-05-04T03:36:47.632Z,2.95
2023-05-04T03:39:52.034Z,3.55
2023-05-04T03:42:56.326Z,3.00
2023-05-04T03:46:00.446Z,2.67
2023-05-04T03:49:04.867Z,4.75
2023-05-04T03:52:09.107Z,3.28
2023-05-04T03:55:13.651Z,3.05
2023-05-04T03:58:18.280Z,4.03
2023-05-04T04:01:22.771Z,4.20
2023-05-04T04:04:27.146Z,2.95
2023-05-04T04:07:31.450Z,3.00
2023-05-04T04:10:35.891Z,6.07
2023-05-04T04:13:40.465Z,3.53
2023-05-04T04:16:44.915Z,3.95
2023-05-04T04:19:49.164Z,4.63
2023-05-04T04:22:53.331Z,2.90
2023-05-04T04:25:57.352Z,3.50
2023-05-04T04:29:01.600Z,3.83
2023-05-04T04:32:05.774Z,3.30
2023-05-04T04:35:10.040Z,4.10
2023-05-04T04:38:14.513Z,3.13
2023-05-04T04:41:18.647Z,3.08
2023-05-04T04:44:23.113Z,4.32
2023-05-04T04:47:27.528Z,3.60
2023-05-04T04:50:31.991Z,2.70
2023-05-04T04:53:36.299Z,2.55
2023-05-04T04:56:40.692Z,2.45
2023-05-04T04:59:44.997Z,2.58
2023-05-04T05:02:49.325Z,4.15
2023-05-04T05:05:53.706Z,2.75
2023-05-04T05:08:57.908Z,2.97
2023-05-04T05:12:02.424Z,2.55
2023-05-04T05:15:06.672Z,3.45
2023-05-04T05:18:11.095Z,2.67
2023-05-04T05:21:15.258Z,3.63
2023-05-04T05:24:19.700Z,3.13
2023-05-04T05:27:24.071Z,3.05
2023-05-04T05:30:28.638Z,3.22
2023-05-04T05:33:33.166Z,8.02
2023-05-04T05:36:37.315Z,3.05
2023-05-04T05:39:41.734Z,2.85
2023-05-04T05:42:46.124Z,3.83
2023-05-04T05:45:50.416Z,3.38
2023-05-04T05:48:54.721Z,4.07
2023-05-04T05:51:58.903Z,4.03
2023-05-04T05:55:03.196Z,4.13
2023-05-04T05:58:07.613Z,3.78
2023-05-04T06:01:12.076Z,2.55
2023-05-04T06:04:16.335Z,2.88
2023-05-04T06:07:20.917Z,6.20
2023-05-04T06:10:25.526Z,5.70
2023-05-04T06:13:29.981Z,5.88
2023-05-04T06:16:34.241Z,5.25
2023-05-04T06:19:38.577Z,6.80
2023-05-04T06:22:42.768Z,6.13
2023-05-04T06:25:47.005Z,7.75
2023-05-04T06:28:51.591Z,6.30
2023-05-04T06:31:56.081Z,6.15
2023-05-04T06:35:00.306Z,6.90
2023-05-04T06:38:04.471Z,10.75
2023-05-04T06:41:08.648Z,9.27
2023-05-04T06:44:13.023Z,8.23
2023-05-04T06:47:17.194Z,9.63
2023-05-04T06:50:21.496Z,14.10
2023-05-04T06:53:25.724Z,9.15
2023-05-04T06:56:30.322Z,7.80
2023-05-04T06:59:34.758Z,7.93
2023-05-04T07:02:39.053Z,5.85
2023-05-04T07:05:43.125Z,8.27
2023-05-04T07:08:47.344Z,7.78
2023-05-04T07:11:51.923Z,7.32
2023-05-04T07:14:56.177Z,8.13
2023-05-04T07:18:00.267Z,7.43
2023-05-04T07:21:21.741Z,9.00
2023-05-04T07:24:28.851Z,8.35
2023-05-04T07:27:33.014Z,9.75
2023-05-04T07:30:37.386Z,8.40
2023-05-04T07:33:44.549Z,6.93
2023-05-04T07:36:49.099Z,4.63
2023-05-04T07:39:53.359Z,7.95
2023-05-04T07:42:57.659Z,7.28
2023-05-04T07:46:02.150Z,7.82
2023-05-04T07:49:06.599Z,11.38
2023-05-04T07:52:11.262Z,10.90
2023-05-04T07:55:15.834Z,11.68
2023-05-04T07:58:20.187Z,8.30
2023-05-04T08:01:24.302Z,7.50
2023-05-04T08:04:28.599Z,9.48
2023-05-04T08:07:33.345Z,9.00
2023-05-04T08:10:37.682Z,9.30
2023-05-04T08:13:41.822Z,8.43
2023-05-04T08:16:46.036Z,5.68
2023-05-04T08:19:50.335Z,4.95
2023-05-04T08:22:54.895Z,2.97
2023-05-04T08:25:59.241Z,4.50
2023-05-04T08:29:03.440Z,9.20
2023-05-04T08:32:07.853Z,8.95
2023-05-04T08:35:12.350Z,7.47
2023-05-04T08:38:16.769Z,9.07
2023-05-04T08:41:21.093Z,5.03
2023-05-04T08:44:25.363Z,3.85
2023-05-04T08:47:29.692Z,7.22
2023-05-04T08:50:34.081Z,5.22
2023-05-04T08:53:38.377Z,5.43
2023-05-04T08:56:42.676Z,5.45
2023-05-04T08:59:46.786Z,6.35
2023-05-04T09:02:50.977Z,4.03
2023-05-04T09:05:55.571Z,11.13
2023-05-04T09:09:00.009Z,11.38
2023-05-04T09:12:04.610Z,9.55
2023-05-04T09:15:08.942Z,9.10
2023-05-04T09:18:13.647Z,5.78
2023-05-04T09:21:18.118Z,5.55
2023-05-04T09:24:22.328Z,3.10
2023-05-04T09:27:27.136Z,9.57
2023-05-04T09:30:31.697Z,7.75
2023-05-04T09:33:35.898Z,6.95
2023-05-04T09:36:40.267Z,8.40
2023-05-04T09:39:44.706Z,7.55
2023-05-04T09:42:49.740Z,8.77
2023-05-04T09:45:54.071Z,8.70
2023-05-04T09:48:58.640Z,23.35
2023-05-04T09:52:03.102Z,10.93
2023-05-04T09:55:07.538Z,5.10
2023-05-04T09:58:11.821Z,6.45
2023-05-04T10:01:16.327Z,8.38
2023-05-04T10:04:20.715Z,8.65
2023-05-04T10:07:25.066Z,7.68
2023-05-04T10:10:29.336Z,8.18
2023-05-04T10:13:33.919Z,7.10
2023-05-04T10:16:38.795Z,6.93
2023-05-04T10:19:43.663Z,7.97
2023-05-04T10:22:47.976Z,8.13
2023-05-04T10:25:52.272Z,6.65
2023-05-04T10:28:56.727Z,5.57
2023-05-04T10:32:01.131Z,4.13
2023-05-04T10:35:05.745Z,6.78
2023-05-04T10:38:10.204Z,5.78
2023-05-04T10:41:14.613Z,6.97
2023-05-04T10:44:18.974Z,5.60
2023-05-04T10:47:23.289Z,6.65
2023-05-04T10:50:27.948Z,5.47
2023-05-04T10:53:31.965Z,5.80
2023-05-04T10:56:36.431Z,8.05
2023-05-04T10:59:40.754Z,5.85
2023-05-04T11:02:45.453Z,7.75
2023-05-04T11:05:49.561Z,7.30
2023-05-04T11:08:53.899Z,8.15
2023-05-04T11:11:58.280Z,6.70
2023-05-04T11:15:02.792Z,6.75
2023-05-04T11:18:07.356Z,4.55
2023-05-04T11:21:11.746Z,8.13
2023-05-04T11:24:16.018Z,4.22
2023-05-04T11:27:20.488Z,5.35
2023-05-04T11:30:25.130Z,5.47
2023-05-04T11:33:29.745Z,5.65
2023-05-04T11:36:33.797Z,5.60
2023-05-04T11:39:38.076Z,5.75
2023-05-04T11:42:42.593Z,8.00
2023-05-04T11:45:47.038Z,6.97
2023-05-04T11:48:51.451Z,7.30
2023-05-04T11:51:55.881Z,7.00
2023-05-04T11:55:00.046Z,8.13
2023-05-04T11:58:04.214Z,4.30
2023-05-04T12:01:08.501Z,4.03
2023-05-04T12:04:13.016Z,5.32
2023-05-04T12:07:17.402Z,5.47
2023-05-04T12:10:21.548Z,4.35
2023-05-04T12:13:25.855Z,5.32
2023-05-04T12:16:30.418Z,4.90
2023-05-04T12:19:35.350Z,6.13
2023-05-04T12:22:39.591Z,3.30
2023-05-04T12:25:54.756Z,4.07
2023-05-04T12:29:02.476Z,4.28
2023-05-04T12:32:07.004Z,3.75
2023-05-04T12:35:11.502Z,2.83
2023-05-04T12:38:15.652Z,3.78
2023-05-04T12:41:19.915Z,3.08
2023-05-04T12:44:24.362Z,3.60
2023-05-04T12:47:47.631Z,2.15
2023-05-04T12:50:52.564Z,4.97
2023-05-04T12:53:57.163Z,3.90
2023-05-04T12:57:01.526Z,4.45
2023-05-04T13:00:05.970Z,3.17
2023-05-04T13:03:10.171Z,5.13
2023-05-04T13:06:14.742Z,2.50
2023-05-04T13:09:19.328Z,3.53
2023-05-04T13:12:23.708Z,5.90
2023-05-04T13:15:27.909Z,4.18
2023-05-04T13:18:32.269Z,4.13
2023-05-04T13:21:36.833Z,2.55
2023-05-04T13:24:41.135Z,4.93
2023-05-04T13:27:45.486Z,5.32
2023-05-04T13:30:49.564Z,2.88
2023-05-04T13:33:53.938Z,2.72
2023-05-04T13:36:58.492Z,4.70
2023-05-04T13:40:02.737Z,3.45
2023-05-04T13:43:06.875Z,14.30
2023-05-04T13:46:11.123Z,3.40
2023-05-04T13:49:15.563Z,2.03
2023-05-04T13:52:19.781Z,2.83
2023-05-04T13:55:24.145Z,2.28
2023-05-04T13:58:28.452Z,2.13
2023-05-04T14:01:33.027Z,4.40
2023-05-04T14:04:39.769Z,2.45
2023-05-04T14:07:44.388Z,2.90
2023-05-04T14:10:48.627Z,2.58
2023-05-04T14:13:54.323Z,3.53
2023-05-04T14:16:58.542Z,2.35
2023-05-04T14:20:03.192Z,2.63
2023-05-04T14:23:07.462Z,1.90
2023-05-04T14:26:12.082Z,5.38
2023-05-04T14:29:16.918Z,2.03
2023-05-04T14:32:21.470Z,3.33
2023-05-04T14:35:25.894Z,2.60
2023-05-04T14:38:30.588Z,4.85
2023-05-04T14:41:35.246Z,3.03
2023-05-04T14:44:39.907Z,5.35
2023-05-04T14:47:44.388Z,3.55
2023-05-04T14:50:48.706Z,2.95
2023-05-04T14:53:52.881Z,2.15
2023-05-04T14:56:57.343Z,2.78
2023-05-04T15:00:01.737Z,3.10
2023-05-04T15:03:06.093Z,2.08
2023-05-04T15:06:10.464Z,1.88
2023-05-04T15:09:14.873Z,1.63
2023-05-04T15:12:19.449Z,2.10
2023-05-04T15:15:23.862Z,2.17
2023-05-04T15:18:28.099Z,2.90
2023-05-04T15:21:32.768Z,2.10
2023-05-04T15:24:37.333Z,1.90
2023-05-04T15:27:41.781Z,2.10
2023-05-04T15:30:46.082Z,1.92
2023-05-04T15:33:50.823Z,1.75
2023-05-04T15:36:55.002Z,3.63
2023-05-04T15:40:01.994Z,2.50
2023-05-04T15:43:06.850Z,4.22
2023-05-04T15:46:11.453Z,3.25
2023-05-04T15:49:16.197Z,3.13
2023-05-04T15:52:22.450Z,2.13
2023-05-04T15:55:26.830Z,2.85
2023-05-04T15:58:31.386Z,5.38
2023-05-04T16:01:35.755Z,3.15
2023-05-04T16:04:40.098Z,6.53
2023-05-04T16:07:44.602Z,2.10
2023-05-04T16:10:49.253Z,3.08
2023-05-04T16:13:53.427Z,10.68
2023-05-04T16:16:57.779Z,2.15
2023-05-04T16:20:02.301Z,2.13
2023-05-04T16:23:06.942Z,2.97
2023-05-04T16:26:11.334Z,3.45
2023-05-04T16:29:15.529Z,2.85
2023-05-04T16:32:19.717Z,2.35
2023-05-04T16:35:24.056Z,2.83
2023-05-04T16:38:28.552Z,4.65
2023-05-04T16:41:32.971Z,3.10
2023-05-04T16:44:37.565Z,2.33
2023-05-04T16:47:41.935Z,2.10
2023-05-04T16:50:46.186Z,2.15
2023-05-04T16:53:51.165Z,5.88
2023-05-04T16:56:55.442Z,3.45
2023-05-04T16:59:59.674Z,2.28
2023-05-04T17:03:04.380Z,2.58
2023-05-04T17:06:08.648Z,2.53
2023-05-04T17:09:12.954Z,25.92
2023-05-04T17:12:17.327Z,40.13
2023-05-04T17:15:21.620Z,119.13
2023-05-04T17:18:25.715Z,320.77
2023-05-04T17:21:31.906Z,128.68
2023-05-04T17:24:36.570Z,13.55
2023-05-04T17:27:41.225Z,3.15
2023-05-04T17:30:45.481Z,2.55
2023-05-04T17:33:49.843Z,2.60
2023-05-04T17:36:54.000Z,4.68
2023-05-04T17:39:58.337Z,2.85
2023-05-04T17:43:02.677Z,2.63
2023-05-04T17:46:07.057Z,2.72
2023-05-04T17:49:11.386Z,2.42
2023-05-04T17:52:15.598Z,3.33
2023-05-04T17:55:19.834Z,2.33
2023-05-04T17:58:24.279Z,3.10
2023-05-04T18:01:28.515Z,3.00
2023-05-04T18:04:32.666Z,2.33
2023-05-04T18:07:37.314Z,2.80
2023-05-04T18:10:41.618Z,4.13
2023-05-04T18:13:46.036Z,2.83
2023-05-04T18:16:50.137Z,2.35
2023-05-04T18:19:54.394Z,3.47
2023-05-04T18:22:58.378Z,5.57
2023-05-04T18:26:02.648Z,5.70
2023-05-04T18:29:18.471Z,2.53
2023-05-04T18:32:23.757Z,3.10
2023-05-04T18:35:28.222Z,3.60
2023-05-04T18:38:32.554Z,4.80
2023-05-04T18:41:37.096Z,2.67
2023-05-04T18:44:41.286Z,4.32
2023-05-04T18:47:45.399Z,4.80
2023-05-04T18:50:50.146Z,3.88
2023-05-04T18:53:54.449Z,6.15
2023-05-04T18:56:58.915Z,3.70
2023-05-04T19:00:03.167Z,4.40
2023-05-04T19:03:07.308Z,3.67
2023-05-04T19:06:11.927Z,4.25
2023-05-04T19:09:16.423Z,2.58
2023-05-04T19:12:20.783Z,4.00
2023-05-04T19:15:25.106Z,4.85
2023-05-04T19:18:29.531Z,5.95
2023-05-04T19:21:33.958Z,5.20
2023-05-04T19:24:38.369Z,3.58
2023-05-04T19:27:42.878Z,4.10
2023-05-04T19:30:47.155Z,2.30
2023-05-04T19:33:51.417Z,6.18
2023-05-04T19:36:55.576Z,3.13
2023-05-04T19:40:00.015Z,3.60
2023-05-04T19:43:04.320Z,6.57
2023-05-04T19:46:09.098Z,6.60
2023-05-04T19:49:13.330Z,5.40
2023-05-04T19:52:17.445Z,4.55
2023-05-04T19:55:21.671Z,3.45
2023-05-04T19:58:25.865Z,3.58
2023-05-04T20:01:30.200Z,4.18
2023-05-04T20:04:34.265Z,4.85
2023-05-04T20:07:38.823Z,3.78
2023-05-04T20:10:43.513Z,2.58
2023-05-04T20:13:47.866Z,3.15
2023-05-04T20:16:52.300Z,4.65
2023-05-04T20:19:56.666Z,2.55
2023-05-04T20:23:01.171Z,2.47
2023-05-04T20:26:06.232Z,3.60
2023-05-04T20:29:10.660Z,2.95
2023-05-04T20:32:15.164Z,3.67
2023-05-04T20:35:19.239Z,4.47
2023-05-04T20:38:23.391Z,3.60
2023-05-04T20:41:27.996Z,2.90
2023-05-04T20:44:32.399Z,6.55
2023-05-04T20:47:36.697Z,3.35
2023-05-04T20:50:40.746Z,4.68
2023-05-04T20:53:45.328Z,5.93
2023-05-04T20:56:49.597Z,3.63
2023-05-04T20:59:54.189Z,4.97
2023-05-04T21:02:58.456Z,4.15
2023-05-04T21:06:02.546Z,3.10
2023-05-04T21:09:06.744Z,3.10
2023-05-04T21:12:11.104Z,2.90
2023-05-04T21:15:15.877Z,3.22
2023-05-04T21:18:20.268Z,5.78
2023-05-04T21:21:24.382Z,3.15
2023-05-04T21:24:28.521Z,3.92
2023-05-04T21:27:32.917Z,4.90
2023-05-04T21:30:37.323Z,4.65
2023-05-04T21:33:41.876Z,3.38
2023-05-04T21:36:46.238Z,3.88
2023-05-04T21:39:50.482Z,4.68
2023-05-04T21:42:54.905Z,4.32
2023-05-04T21:45:59.404Z,4.53
2023-05-04T21:49:03.796Z,3.22
2023-05-04T21:52:07.751Z,7.28
2023-05-04T21:55:11.904Z,5.78
2023-05-04T21:58:16.532Z,4.25
2023-05-04T22:01:21.199Z,3.20
2023-05-04T22:04:25.654Z,4.35
2023-05-04T22:07:29.810Z,7.65
2023-05-04T22:10:34.043Z,4.70
2023-05-04T22:13:38.455Z,6.55
2023-05-04T22:16:42.721Z,3.40
2023-05-04T22:19:47.034Z,4.60
2023-05-04T22:22:51.334Z,4.10
2023-05-04T22:25:55.423Z,4.10
2023-05-04T22:28:59.963Z,4.32
2023-05-04T22:32:04.586Z,3.30
2023-05-04T22:35:09.182Z,5.78
2023-05-04T22:38:13.428Z,3.85
2023-05-04T22:41:17.653Z,3.65
2023-05-04T22:44:22.036Z,7.10
2023-05-04T22:47:26.386Z,4.30
2023-05-04T22:50:30.989Z,3.22
2023-05-04T22:53:35.120Z,4.82
2023-05-04T22:56:39.740Z,3.50
2023-05-04T22:59:44.128Z,3.15
2023-05-04T23:02:48.554Z,4.20
2023-05-04T23:05:52.868Z,3.60
2023-05-04T23:08:57.049Z,3.42
2023-05-04T23:12:01.421Z,3.15
2023-05-04T23:15:05.797Z,3.65
2023-05-04T23:18:10.305Z,5.05
2023-05-04T23:21:14.688Z,3.22
2023-05-04T23:24:18.863Z,3.30
2023-05-04T23:27:23.139Z,3.20
2023-05-04T23:30:27.593Z,4.13
2023-05-04T23:33:32.264Z,3.33
2023-05-04T23:36:36.588Z,3.72
2023-05-04T23:39:43.868Z,3.42
2023-05-04T23:42:48.210Z,4.38
2023-05-04T23:45:52.451Z,3.25
2023-05-04T23:48:56.840Z,4.90
2023-05-04T23:52:01.245Z,3.83
2023-05-04T23:55:05.608Z,4.10
2023-05-04T23:58:09.946Z,7.35
